Time;durP1;ratioP1;P1;durP2;ratioP2;P2;SDS_P1;SDS_P2;PMS_P1;PMS_P2;Temp;Humidity;BMP_temperature;BMP_pressure;BME280_temperature;BME280_humidity;BME280_pressure;Samples;Min_cycle;Max_cycle;Signal;HPM_P1;HPM_P2
2023/03/28 00:00:07;;;;;;;23.23;7.90;;;3.10;99.90;;;;;;5082652;28;20263;-66
2023/03/28 00:02:33;;;;;;;11.35;5.78;;;3.00;99.90;;;;;;5075108;28;20027;-66
2023/03/28 00:04:59;;;;;;;9.37;5.10;;;2.90;99.90;;;;;;5080663;28;20039;-66
2023/03/28 00:07:26;;;;;;;14.85;5.75;;;2.80;99.90;;;;;;5078925;28;20063;-66
2023/03/28 00:09:51;;;;;;;11.65;5.40;;;2.80;99.90;;;;;;5075307;28;20025;-66
2023/03/28 00:12:17;;;;;;;10.85;5.75;;;2.80;99.90;;;;;;5082813;28;20099;-66
2023/03/28 00:14:45;;;;;;;13.63;5.47;;;2.90;99.90;;;;;;5079658;28;20055;-66
2023/03/28 00:17:11;;;;;;;11.40;5.82;;;2.80;99.90;;;;;;5079566;28;20294;-66
2023/03/28 00:19:39;;;;;;;14.20;5.78;;;2.90;99.90;;;;;;5080024;28;20106;-66
2023/03/28 00:22:05;;;;;;;15.55;6.22;;;2.90;99.90;;;;;;5072008;28;20033;-66
2023/03/28 00:24:34;;;;;;;10.02;5.45;;;2.90;99.90;;;;;;5082975;28;20040;-66
2023/03/28 00:27:00;;;;;;;12.13;6.15;;;3.00;99.90;;;;;;5075414;28;20535;-66
2023/03/28 00:29:28;;;;;;;;;;;2.90;99.90;;;;;;5083883;28;20043;-66
2023/03/28 00:31:54;;;;;;;9.98;5.72;;;2.90;99.90;;;;;;5083534;28;19919;-66
2023/03/28 00:34:20;;;;;;;14.88;5.88;;;2.80;99.90;;;;;;5080732;28;20023;-66
2023/03/28 00:36:46;;;;;;;11.67;5.67;;;2.70;99.90;;;;;;5080429;28;20046;-66
2023/03/28 00:39:12;;;;;;;11.77;6.37;;;2.70;99.90;;;;;;5081591;28;20408;-66
2023/03/28 00:41:41;;;;;;;18.25;6.47;;;2.60;99.90;;;;;;5082206;28;20031;-66
2023/03/28 00:44:40;;;;;;;13.90;5.68;;;2.50;99.90;;;;;;5082127;28;20590;-66
2023/03/28 00:47:32;;;;;;;10.43;4.82;;;2.30;99.90;;;;;;5082593;28;20023;-66
2023/03/28 00:50:04;;;;;;;13.07;5.60;;;2.40;99.90;;;;;;5080007;28;20438;-66
2023/03/28 00:52:38;;;;;;;11.75;5.38;;;2.40;99.90;;;;;;5075254;28;20387;-66
2023/03/28 00:55:11;;;;;;;23.88;6.60;;;2.50;99.90;;;;;;5095355;28;20391;-66
2023/03/28 00:57:37;;;;;;;23.90;7.25;;;2.50;99.90;;;;;;5080185;28;20051;-66
2023/03/28 01:00:23;;;;;;;;;;;2.40;99.90;;;;;;5082458;28;20048;-66
2023/03/28 01:02:53;;;;;;;15.23;5.57;;;2.40;99.90;;;;;;5085303;28;19961;-66
2023/03/28 01:05:23;;;;;;;11.75;5.03;;;2.50;99.90;;;;;;5065130;28;20050;-66
2023/03/28 01:07:53;;;;;;;16.17;5.78;;;2.50;99.90;;;;;;5078123;28;20044;-66
2023/03/28 01:10:20;;;;;;;13.63;5.43;;;2.40;99.90;;;;;;5081432;28;20036;-66
2023/03/28 01:12:46;;;;;;;12.70;5.80;;;2.30;99.90;;;;;;5084838;28;20627;-66
2023/03/28 01:15:12;;;;;;;16.65;6.47;;;2.30;99.90;;;;;;5084126;28;20043;-66
2023/03/28 01:17:40;;;;;;;11.90;5.13;;;2.30;99.90;;;;;;5083034;28;20044;-66
2023/03/28 01:20:50;;;;;;;12.55;5.65;;;2.30;99.90;;;;;;5084098;28;20032;-66
2023/03/28 01:23:32;;;;;;;16.10;5.53;;;2.30;99.90;;;;;;5082258;28;20118;-66
2023/03/28 01:26:25;;;;;;;9.98;5.22;;;2.30;99.90;;;;;;5061351;28;20093;-66
2023/03/28 01:29:18;;;;;;;13.35;6.07;;;2.30;99.90;;;;;;5078070;28;20186;-66
2023/03/28 01:32:02;;;;;;;18.40;7.47;;;2.30;99.90;;;;;;5084865;28;20032;-66
2023/03/28 01:35:00;;;;;;;12.07;5.57;;;2.10;99.90;;;;;;5084931;28;20042;-66
2023/03/28 01:37:42;;;;;;;12.57;6.03;;;2.20;99.90;;;;;;5075933;28;20389;-66
2023/03/28 01:40:26;;;;;;;14.60;5.47;;;2.30;99.90;;;;;;5080755;28;20082;-66
2023/03/28 01:43:22;;;;;;;27.50;6.78;;;2.00;99.90;;;;;;5081057;28;20211;-66
2023/03/28 01:46:28;;;;;;;10.00;5.65;;;2.10;99.90;;;;;;5077058;28;20070;-66
2023/03/28 01:49:12;;;;;;;10.93;5.00;;;1.90;99.90;;;;;;5083282;28;20028;-66
2023/03/28 01:51:55;;;;;;;15.75;4.68;;;2.10;99.90;;;;;;5083611;28;20036;-66
2023/03/28 01:54:40;;;;;;;14.48;5.97;;;2.00;99.90;;;;;;5082614;28;20384;-66
2023/03/28 01:57:11;;;;;;;12.18;5.80;;;1.80;99.90;;;;;;5081740;28;20043;-66
2023/03/28 02:00:10;;;;;;;17.80;5.07;;;1.90;99.90;;;;;;5079204;28;20561;-66
2023/03/28 02:02:48;;;;;;;8.07;5.05;;;1.90;99.90;;;;;;5082613;28;20472;-66
2023/03/28 02:05:14;;;;;;;9.93;5.20;;;1.80;99.90;;;;;;5087537;28;20028;-66
2023/03/28 02:07:42;;;;;;;23.70;5.13;;;1.90;99.90;;;;;;5081498;28;20408;-66
2023/03/28 02:10:10;;;;;;;13.48;5.75;;;1.80;99.90;;;;;;5083126;28;20023;-66
2023/03/28 02:13:14;;;;;;;11.88;5.00;;;1.70;99.90;;;;;;5082258;28;20028;-65
2023/03/28 02:15:42;;;;;;;11.18;4.97;;;1.70;99.90;;;;;;5057072;28;20032;-66
2023/03/28 02:18:19;;;;;;;14.25;5.15;;;1.70;99.90;;;;;;5101820;28;20032;-66
2023/03/28 02:20:51;;;;;;;17.90;5.40;;;1.70;99.90;;;;;;5087004;28;20046;-66
2023/03/28 02:23:22;;;;;;;10.85;4.90;;;1.70;99.90;;;;;;5082753;28;20040;-66
2023/03/28 02:25:48;;;;;;;14.32;5.97;;;1.70;99.90;;;;;;5082707;28;20020;-66
2023/03/28 02:28:16;;;;;;;10.65;5.60;;;1.50;99.90;;;;;;5082196;28;20472;-66
2023/03/28 02:30:41;;;;;;;12.10;5.20;;;1.50;99.90;;;;;;5080970;28;20083;-66
2023/03/28 02:33:30;;;;;;;11.73;5.50;;;1.50;99.90;;;;;;5080304;28;20044;-66
2023/03/28 02:36:04;;;;;;;19.20;5.00;;;1.50;99.90;;;;;;5077746;28;20033;-66
2023/03/28 02:39:20;;;;;;;10.88;5.13;;;1.60;99.90;;;;;;5085354;28;20078;-66
2023/03/28 02:42:06;;;;;;;11.82;5.57;;;1.60;99.90;;;;;;5084266;28;20031;-66
2023/03/28 02:44:47;;;;;;;18.13;5.68;;;1.60;99.90;;;;;;5076696;28;20024;-66
2023/03/28 02:47:40;;;;;;;9.57;4.60;;;1.60;99.90;;;;;;5079190;28;20173;-66
2023/03/28 02:50:37;;;;;;;10.07;4.85;;;1.60;99.90;;;;;;5079343;28;20027;-66
2023/03/28 02:53:25;;;;;;;10.40;4.27;;;1.60;99.90;;;;;;5076773;28;20033;-66
2023/03/28 02:56:00;;;;;;;14.60;5.30;;;1.60;99.90;;;;;;5085655;28;20340;-66
2023/03/28 02:58:47;;;;;;;10.85;5.28;;;1.60;99.90;;;;;;5080788;28;20036;-66
2023/03/28 03:01:16;;;;;;;15.88;5.53;;;1.60;99.90;;;;;;5073881;28;20078;-66
2023/03/28 03:03:42;;;;;;;12.32;5.10;;;1.50;99.90;;;;;;5081716;28;20135;-66
2023/03/28 03:06:09;;;;;;;11.15;5.40;;;1.40;99.90;;;;;;5081987;28;20085;-66
2023/03/28 03:08:35;;;;;;;14.18;5.60;;;1.40;99.90;;;;;;5083968;28;20507;-66
2023/03/28 03:11:00;;;;;;;15.13;5.82;;;1.40;99.90;;;;;;5082090;28;20091;-65
2023/03/28 03:13:26;;;;;;;10.70;5.70;;;1.40;99.90;;;;;;5081094;28;20069;-66
2023/03/28 03:15:54;;;;;;;9.47;5.37;;;1.30;99.90;;;;;;5080242;28;20140;-66
2023/03/28 03:18:20;;;;;;;9.98;5.35;;;1.40;99.90;;;;;;5080223;28;20044;-66
2023/03/28 03:20:46;;;;;;;19.85;5.68;;;1.30;99.90;;;;;;5085977;28;20015;-65
2023/03/28 03:23:12;;;;;;;19.90;5.68;;;1.30;99.90;;;;;;5080769;28;20131;-66
2023/03/28 03:25:38;;;;;;;14.45;6.28;;;1.40;99.90;;;;;;5083628;28;20042;-66
2023/03/28 03:28:04;;;;;;;20.50;6.22;;;1.40;99.90;;;;;;5080379;28;20518;-66
2023/03/28 03:30:30;;;;;;;16.35;5.78;;;1.30;99.90;;;;;;5074829;28;20028;-66
2023/03/28 03:32:56;;;;;;;25.15;6.80;;;1.30;99.90;;;;;;5098959;28;20032;-66
2023/03/28 03:35:22;;;;;;;13.88;5.88;;;1.20;99.90;;;;;;5077543;28;20032;-66
2023/03/28 03:37:48;;;;;;;12.82;5.70;;;1.20;99.90;;;;;;5078421;28;20100;-66
2023/03/28 03:40:13;;;;;;;13.68;6.53;;;1.30;99.90;;;;;;5080047;28;20032;-66
2023/03/28 03:42:39;;;;;;;11.18;5.47;;;1.20;99.90;;;;;;5080306;28;20040;-66
2023/03/28 03:45:06;;;;;;;18.50;7.28;;;1.20;99.90;;;;;;5083892;28;20077;-66
2023/03/28 03:47:32;;;;;;;12.98;5.95;;;1.20;99.90;;;;;;5081363;28;20029;-66
2023/03/28 03:49:57;;;;;;;13.70;5.93;;;1.10;99.90;;;;;;5083936;28;20117;-66
2023/03/28 03:52:23;;;;;;;12.93;6.00;;;1.00;99.90;;;;;;5076220;28;20111;-66
2023/03/28 03:54:49;;;;;;;19.10;7.37;;;0.90;99.90;;;;;;5079098;28;20297;-65
2023/03/28 03:57:16;;;;;;;20.10;6.45;;;1.00;99.90;;;;;;5082970;28;20110;-66
2023/03/28 03:59:41;;;;;;;14.02;5.68;;;1.10;99.90;;;;;;5083096;28;20058;-65
2023/03/28 04:02:07;;;;;;;13.57;6.20;;;1.00;99.90;;;;;;5080107;28;20117;-65
2023/03/28 04:04:32;;;;;;;14.10;6.70;;;1.00;99.90;;;;;;5079964;28;20519;-66
2023/03/28 04:06:58;;;;;;;15.50;6.47;;;1.10;99.90;;;;;;5082719;28;20098;-66
2023/03/28 04:09:28;;;;;;;20.13;6.47;;;1.00;99.90;;;;;;5079829;28;20266;-66
2023/03/28 04:11:54;;;;;;;14.80;6.38;;;1.00;99.90;;;;;;5076897;28;20054;-65
2023/03/28 04:14:20;;;;;;;10.02;5.85;;;1.00;99.90;;;;;;5074458;28;20024;-65
2023/03/28 04:16:49;;;;;;;17.20;6.68;;;1.00;99.90;;;;;;5078635;28;20035;-66
2023/03/28 04:19:16;;;;;;;13.98;6.10;;;1.00;99.90;;;;;;5082195;28;20491;-65
2023/03/28 04:21:46;;;;;;;12.57;6.32;;;0.90;99.90;;;;;;5085417;28;20311;-66
2023/03/28 04:24:14;;;;;;;18.05;7.50;;;1.00;99.90;;;;;;5075930;28;20032;-65
2023/03/28 04:26:40;;;;;;;17.75;7.30;;;1.00;99.90;;;;;;5073395;28;20028;-66
2023/03/28 04:29:08;;;;;;;14.82;7.07;;;1.00;99.90;;;;;;5082543;28;20024;-66
2023/03/28 04:31:34;;;;;;;16.98;6.60;;;0.90;99.90;;;;;;5079569;28;20569;-65
2023/03/28 04:34:02;;;;;;;;;;;0.90;99.90;;;;;;5081206;28;20036;-66
2023/03/28 04:36:28;;;;;;;23.75;7.90;;;1.00;99.90;;;;;;5081149;28;19922;-65
2023/03/28 04:38:57;;;;;;;12.70;6.80;;;0.90;99.90;;;;;;5083537;28;20020;-66
2023/03/28 04:41:24;;;;;;;14.77;7.32;;;0.90;99.90;;;;;;5073227;28;20033;-67
2023/03/28 04:43:50;;;;;;;19.38;6.75;;;0.80;99.90;;;;;;5079864;28;20047;-66
2023/03/28 04:46:16;;;;;;;21.00;7.20;;;0.90;99.90;;;;;;5080583;28;20060;-66
2023/03/28 04:48:41;;;;;;;21.52;7.57;;;0.90;99.90;;;;;;5079046;28;20056;-66
2023/03/28 04:51:07;;;;;;;13.63;7.57;;;0.80;99.90;;;;;;5076385;28;20083;-66
2023/03/28 04:53:33;;;;;;;18.63;6.90;;;0.80;99.90;;;;;;5078157;28;20281;-66
2023/03/28 04:55:59;;;;;;;11.02;6.65;;;0.80;99.90;;;;;;5077669;28;20036;-66
2023/03/28 04:58:24;;;;;;;15.73;7.23;;;0.80;99.90;;;;;;5077734;28;20104;-66
2023/03/28 05:00:52;;;;;;;20.27;7.97;;;0.70;99.90;;;;;;5095524;28;20270;-66
2023/03/28 05:03:20;;;;;;;16.17;7.60;;;0.70;99.90;;;;;;5070736;28;20032;-66
2023/03/28 05:05:50;;;;;;;21.38;7.78;;;0.70;99.90;;;;;;5084965;28;20028;-66
2023/03/28 05:08:17;;;;;;;24.73;7.70;;;0.70;99.90;;;;;;5082277;28;20070;-66
2023/03/28 05:10:46;;;;;;;21.88;8.07;;;0.60;99.90;;;;;;5078737;28;20035;-66
2023/03/28 05:13:12;;;;;;;14.32;7.70;;;0.70;99.90;;;;;;5081194;28;20524;-66
2023/03/28 05:15:38;;;;;;;18.52;7.65;;;0.70;99.90;;;;;;5075634;28;20052;-66
2023/03/28 05:18:04;;;;;;;16.13;8.05;;;0.70;99.90;;;;;;5081227;28;20126;-66
2023/03/28 05:20:30;;;;;;;32.53;9.23;;;0.70;99.90;;;;;;5078672;28;20029;-66
2023/03/28 05:22:56;;;;;;;22.73;8.02;;;0.70;99.90;;;;;;5082478;28;20021;-66
2023/03/28 05:25:22;;;;;;;27.10;9.27;;;0.70;99.90;;;;;;5079058;28;20042;-66
2023/03/28 05:27:48;;;;;;;26.08;8.68;;;0.70;99.90;;;;;;5080829;28;20034;-66
2023/03/28 05:30:14;;;;;;;23.00;8.60;;;0.70;99.90;;;;;;5079174;28;20024;-66
2023/03/28 05:32:40;;;;;;;20.33;7.43;;;0.60;99.90;;;;;;5080512;28;20106;-66
2023/03/28 05:35:08;;;;;;;30.52;9.00;;;0.70;99.90;;;;;;5081108;28;21808;-66
2023/03/28 05:37:35;;;;;;;18.38;7.68;;;0.80;99.90;;;;;;5083043;28;20059;-66
2023/03/28 05:40:03;;;;;;;23.55;8.45;;;0.80;99.90;;;;;;5081464;28;20024;-66
2023/03/28 05:42:29;;;;;;;14.63;7.63;;;0.80;99.90;;;;;;5084457;28;20093;-66
2023/03/28 05:44:54;;;;;;;27.70;7.43;;;0.80;99.90;;;;;;5076354;28;20491;-66
2023/03/28 05:47:20;;;;;;;17.77;7.70;;;0.80;99.90;;;;;;5078467;28;20032;-66
2023/03/28 05:49:46;;;;;;;21.05;8.10;;;0.80;99.90;;;;;;5079825;28;20277;-66
2023/03/28 05:52:11;;;;;;;24.03;8.43;;;0.90;99.90;;;;;;5072410;28;20131;-67
2023/03/28 05:54:37;;;;;;;21.90;8.30;;;1.00;99.90;;;;;;5076967;28;20293;-66
2023/03/28 05:57:03;;;;;;;19.63;7.57;;;1.10;99.90;;;;;;5083755;28;20563;-65
2023/03/28 05:59:28;;;;;;;22.10;8.43;;;1.20;99.90;;;;;;5081944;28;20503;-66
2023/03/28 06:01:54;;;;;;;22.00;7.43;;;1.30;99.90;;;;;;5083351;28;20036;-66
2023/03/28 06:04:21;;;;;;;19.35;7.93;;;1.30;99.90;;;;;;5081060;28;20500;-66
2023/03/28 06:06:48;;;;;;;21.35;7.30;;;1.20;99.90;;;;;;5076732;28;20032;-66
2023/03/28 06:09:15;;;;;;;21.00;9.25;;;1.30;99.90;;;;;;5076560;28;20047;-66
2023/03/28 06:11:40;;;;;;;;;;;1.30;99.90;;;;;;5076701;28;20027;-69
2023/03/28 06:14:07;;;;;;;25.88;8.68;;;1.30;99.90;;;;;;5076675;28;19908;-67
2023/03/28 06:16:32;;;;;;;;;;;1.30;99.90;;;;;;5083307;28;20089;-69
2023/03/28 06:18:58;;;;;;;23.88;8.85;;;1.50;99.90;;;;;;5096225;28;20280;-67
2023/03/28 06:21:24;;;;;;;69.05;32.40;;;2.00;99.90;;;;;;5086372;28;20043;-68
2023/03/28 06:23:50;;;;;;;28.57;15.00;;;2.90;99.90;;;;;;5078791;28;20086;-67
2023/03/28 06:26:16;;;;;;;;;;;4.00;99.90;;;;;;5080506;28;20020;-68
2023/03/28 06:28:42;;;;;;;19.23;12.07;;;4.60;99.90;;;;;;5080655;28;19915;-68
2023/03/28 06:31:10;;;;;;;19.03;6.77;;;4.90;99.90;;;;;;5071269;28;20036;-69
2023/03/28 06:33:39;;;;;;;15.07;6.75;;;4.70;99.90;;;;;;5079147;28;20038;-74
2023/03/28 06:36:09;;;;;;;20.33;6.95;;;5.10;99.90;;;;;;5084183;28;20032;-66
2023/03/28 06:38:35;;;;;;;16.95;6.65;;;5.30;99.90;;;;;;5085374;28;20038;-67
2023/03/28 06:41:00;;;;;;;22.53;7.93;;;5.30;99.90;;;;;;5083127;28;20492;-73
2023/03/28 06:43:26;;;;;;;21.80;6.90;;;5.50;99.90;;;;;;5075256;28;20059;-68
2023/03/28 06:45:52;;;;;;;14.97;7.07;;;5.40;99.90;;;;;;5098622;28;20314;-68
2023/03/28 06:48:18;;;;;;;13.07;7.30;;;5.80;99.90;;;;;;5083630;28;20025;-66
2023/03/28 06:50:49;;;;;;;13.82;6.82;;;6.40;99.70;;;;;;5078132;28;20538;-66
2023/03/28 06:53:17;;;;;;;18.30;7.07;;;5.40;99.90;;;;;;5078688;28;20066;-66
2023/03/28 06:55:43;;;;;;;22.40;8.15;;;5.10;99.90;;;;;;5083063;28;20040;-67
2023/03/28 06:58:08;;;;;;;30.65;13.00;;;4.90;99.90;;;;;;5077837;28;20463;-68
2023/03/28 07:00:35;;;;;;;45.97;19.93;;;4.90;99.90;;;;;;5088954;28;20032;-68
2023/03/28 07:03:00;;;;;;;;;;;5.20;99.90;;;;;;5075275;28;20056;-69
2023/03/28 07:05:26;;;;;;;20.67;7.68;;;5.30;99.90;;;;;;5080429;28;20415;-69
2023/03/28 07:07:52;;;;;;;123.57;13.80;;;5.00;99.90;;;;;;5078239;28;20226;-68
2023/03/28 07:10:17;;;;;;;29.33;9.30;;;4.90;99.90;;;;;;5077244;28;20032;-68
2023/03/28 07:12:43;;;;;;;23.40;8.40;;;4.80;99.90;;;;;;5081550;28;20555;-73
2023/03/28 07:15:10;;;;;;;17.48;7.75;;;4.90;99.90;;;;;;5085675;28;20034;-71
2023/03/28 07:17:35;;;;;;;27.75;8.80;;;4.90;99.90;;;;;;5082595;28;20048;-66
2023/03/28 07:20:02;;;;;;;20.23;8.02;;;5.20;99.90;;;;;;5087076;28;20093;-69
2023/03/28 07:22:28;;;;;;;21.08;9.60;;;5.70;99.90;;;;;;5093366;28;20113;-68
2023/03/28 07:24:53;;;;;;;1999.90;907.27;;;7.40;99.90;;;;;;5075664;28;20488;-76
2023/03/28 07:27:19;;;;;;;39.87;26.73;;;9.00;99.20;;;;;;5077310;28;20028;-66
2023/03/28 07:29:45;;;;;;;26.48;10.38;;;9.80;96.70;;;;;;5079200;28;20034;-68
2023/03/28 07:32:11;;;;;;;19.90;8.03;;;9.30;96.10;;;;;;5081664;28;20036;-68
2023/03/28 07:34:36;;;;;;;14.48;8.48;;;8.50;97.20;;;;;;5080556;28;20032;-66
2023/03/28 07:37:03;;;;;;;26.97;10.23;;;7.90;98.00;;;;;;5087422;28;20047;-67
2023/03/28 07:39:29;;;;;;;17.77;8.48;;;7.80;99.90;;;;;;5079768;28;20024;-66
2023/03/28 07:41:55;;;;;;;20.43;8.90;;;8.00;99.90;;;;;;5075379;28;20077;-66
2023/03/28 07:44:20;;;;;;;18.37;7.93;;;8.70;99.90;;;;;;5076468;28;20028;-67
2023/03/28 07:46:46;;;;;;;19.17;7.47;;;9.80;97.10;;;;;;5073962;28;20043;-67
2023/03/28 07:49:14;;;;;;;19.63;8.40;;;10.10;95.00;;;;;;5083998;28;20024;-68
2023/03/28 07:51:40;;;;;;;19.35;7.75;;;10.20;95.90;;;;;;5087680;28;20068;-66
2023/03/28 07:54:06;;;;;;;18.27;7.93;;;10.30;95.00;;;;;;5078981;28;20420;-69
2023/03/28 07:56:32;;;;;;;30.38;8.05;;;11.40;94.20;;;;;;5077489;28;20049;-66
2023/03/28 07:58:57;;;;;;;16.30;8.23;;;11.40;93.50;;;;;;5084534;28;20024;-68
2023/03/28 08:01:23;;;;;;;15.67;6.80;;;11.40;93.30;;;;;;5076401;28;20032;-66
2023/03/28 08:03:49;;;;;;;16.08;7.45;;;11.30;93.10;;;;;;5077371;28;20027;-68
2023/03/28 08:06:15;;;;;;;29.03;8.73;;;11.30;92.40;;;;;;5088498;28;20515;-68
2023/03/28 08:08:40;;;;;;;15.47;7.93;;;11.70;92.60;;;;;;5081717;28;20084;-67
2023/03/28 08:11:06;;;;;;;16.97;6.93;;;12.40;92.80;;;;;;5082704;28;20036;-67
2023/03/28 08:13:32;;;;;;;14.38;7.13;;;12.70;90.50;;;;;;5078967;28;20024;-67
2023/03/28 08:15:58;;;;;;;13.20;7.50;;;13.10;90.20;;;;;;5074022;28;20499;-68
2023/03/28 08:18:25;;;;;;;17.47;7.13;;;13.10;90.20;;;;;;5078339;28;20577;-73
2023/03/28 08:20:57;;;;;;;16.55;8.30;;;12.70;92.00;;;;;;5078870;28;20024;-74
2023/03/28 08:23:23;;;;;;;20.45;8.73;;;12.70;92.40;;;;;;5078552;28;20495;-72
2023/03/28 08:25:48;;;;;;;23.93;7.07;;;12.30;92.40;;;;;;5077648;28;20035;-72
2023/03/28 08:28:14;;;;;;;29.43;12.60;;;11.90;93.40;;;;;;5077344;28;20377;-67
2023/03/28 08:30:40;;;;;;;17.73;7.43;;;12.20;93.40;;;;;;5075059;28;20032;-66
2023/03/28 08:33:06;;;;;;;20.83;7.57;;;13.10;91.80;;;;;;5085480;28;20060;-69
2023/03/28 08:35:32;;;;;;;15.95;7.03;;;13.00;90.30;;;;;;5079273;28;20765;-69
2023/03/28 08:37:58;;;;;;;19.17;6.22;;;12.50;90.40;;;;;;5083985;28;20059;-69
2023/03/28 08:40:26;;;;;;;23.45;7.57;;;12.10;89.80;;;;;;5070858;28;20024;-66
2023/03/28 08:43:14;;;;;;;20.42;7.32;;;11.90;92.10;;;;;;5080137;28;20063;-65
2023/03/28 08:45:53;;;;;;;9.20;5.60;;;11.90;91.70;;;;;;5085161;28;20201;-67
2023/03/28 08:48:38;;;;;;;13.65;6.13;;;11.90;91.70;;;;;;5080577;28;20043;-68
2023/03/28 08:51:24;;;;;;;16.90;6.18;;;11.90;91.50;;;;;;5078364;28;20036;-66
2023/03/28 08:54:45;;;;;;;11.20;6.22;;;11.80;91.80;;;;;;5081433;28;20027;-65
2023/03/28 08:57:32;;;;;;;16.42;6.05;;;11.50;92.70;;;;;;5055323;28;20036;-66
2023/03/28 09:00:07;;;;;;;13.70;6.45;;;11.30;90.30;;;;;;5074030;28;20036;-66
2023/03/28 09:02:33;;;;;;;15.63;6.97;;;11.30;92.60;;;;;;5075018;28;20447;-65
2023/03/28 09:04:59;;;;;;;15.43;6.77;;;11.40;92.40;;;;;;5082923;28;20036;-65
2023/03/28 09:07:58;;;;;;;11.18;6.10;;;11.50;91.50;;;;;;5084773;28;20781;-66
2023/03/28 09:10:38;;;;;;;14.77;6.20;;;11.20;91.60;;;;;;5076890;28;20052;-66
2023/03/28 09:13:28;;;;;;;16.95;6.53;;;10.10;91.20;;;;;;5077024;28;20036;-67
2023/03/28 09:16:07;;;;;;;12.57;6.30;;;10.50;92.50;;;;;;5077255;28;20028;-66
2023/03/28 09:18:45;;;;;;;13.30;6.35;;;11.00;93.20;;;;;;5080664;28;20036;-66
2023/03/28 09:21:22;;;;;;;15.77;5.80;;;10.50;91.80;;;;;;5078213;28;20027;-69
2023/03/28 09:24:16;;;;;;;12.90;6.60;;;10.70;92.70;;;;;;5081047;28;20106;-67
2023/03/28 09:26:50;;;;;;;10.43;6.22;;;11.30;92.70;;;;;;5079306;28;20391;-68
2023/03/28 09:29:19;;;;;;;13.52;5.88;;;11.50;92.60;;;;;;5078769;28;20099;-67
2023/03/28 09:31:47;;;;;;;22.02;6.03;;;11.60;91.90;;;;;;5076874;28;20381;-67
2023/03/28 09:34:41;;;;;;;15.00;6.43;;;11.50;89.80;;;;;;5078101;28;20028;-67
2023/03/28 09:37:26;;;;;;;10.98;5.70;;;11.40;91.00;;;;;;5074817;28;20090;-67
2023/03/28 09:39:53;;;;;;;11.00;5.90;;;11.90;92.10;;;;;;5077039;28;20113;-67
2023/03/28 09:42:29;;;;;;;16.23;5.40;;;12.30;92.50;;;;;;5076667;28;20381;-67
2023/03/28 09:45:07;;;;;;;10.52;5.32;;;11.80;90.50;;;;;;5082947;28;20062;-67
2023/03/28 09:47:33;;;;;;;11.52;5.70;;;12.20;92.70;;;;;;5077050;28;20060;-67
2023/03/28 09:49:59;;;;;;;7.60;5.13;;;12.30;91.20;;;;;;5078099;28;20060;-67
2023/03/28 09:52:24;;;;;;;11.27;5.97;;;12.60;90.00;;;;;;5074988;28;20032;-67
2023/03/28 09:54:50;;;;;;;8.75;2.92;;;12.70;90.60;;;;;;5085859;28;20503;-67
2023/03/28 09:57:16;;;;;;;5.97;2.30;;;11.80;81.20;;;;;;5078860;28;20044;-67
2023/03/28 09:59:42;;;;;;;4.87;2.30;;;11.70;86.00;;;;;;5079184;28;20028;-65
2023/03/28 10:02:29;;;;;;;3.60;1.97;;;11.60;82.60;;;;;;5073495;28;20071;-65
2023/03/28 10:04:55;;;;;;;4.63;1.90;;;12.20;79.70;;;;;;5086101;28;20031;-65
2023/03/28 10:07:41;;;;;;;2.85;1.60;;;12.50;78.70;;;;;;5083908;28;20394;-65
2023/03/28 10:10:22;;;;;;;3.22;1.40;;;12.50;78.60;;;;;;5080147;28;20050;-65
2023/03/28 10:12:54;;;;;;;6.18;1.38;;;11.60;75.10;;;;;;5082009;28;20099;-65
2023/03/28 10:15:31;;;;;;;5.15;2.15;;;12.30;77.00;;;;;;5087306;28;20028;-65
2023/03/28 10:17:59;;;;;;;5.47;1.88;;;12.70;80.80;;;;;;5081726;28;20128;-65
2023/03/28 10:20:25;;;;;;;5.70;2.50;;;12.60;79.40;;;;;;5080128;28;20024;-65
2023/03/28 10:22:53;;;;;;;4.13;1.77;;;12.90;79.30;;;;;;5075518;28;20403;-65
2023/03/28 10:25:30;;;;;;;8.52;2.25;;;13.20;81.50;;;;;;5078719;28;20801;-66
2023/03/28 10:27:59;;;;;;;6.35;2.50;;;13.40;79.60;;;;;;5075916;28;20720;-65
2023/03/28 10:30:29;;;;;;;5.47;2.58;;;13.10;76.80;;;;;;5078813;28;20068;-65
2023/03/28 10:33:16;;;;;;;4.35;1.95;;;12.70;83.60;;;;;;5080912;28;20031;-65
2023/03/28 10:36:08;;;;;;;5.35;1.77;;;13.20;80.70;;;;;;5089806;28;20032;-65
2023/03/28 10:38:46;;;;;;;4.93;1.88;;;13.40;77.20;;;;;;5079509;28;20209;-65
2023/03/28 10:41:29;;;;;;;5.13;1.92;;;13.50;74.80;;;;;;5077041;28;20384;-65
2023/03/28 10:43:55;;;;;;;6.25;1.58;;;13.10;73.10;;;;;;5078470;28;20036;-65
2023/03/28 10:46:28;;;;;;;;;;;13.30;76.80;;;;;;5078433;28;20662;-65
2023/03/28 10:49:13;;;;;;;2.97;1.63;;;13.00;74.70;;;;;;5080927;28;19939;-65
2023/03/28 10:51:40;;;;;;;7.00;2.00;;;13.30;75.90;;;;;;5079599;28;20040;-66
2023/03/28 10:54:25;;;;;;;4.45;2.13;;;12.10;71.30;;;;;;5080628;28;20040;-66
2023/03/28 10:57:10;;;;;;;3.72;1.33;;;12.50;76.00;;;;;;5076248;28;20032;-66
2023/03/28 10:59:54;;;;;;;5.50;1.67;;;12.80;72.40;;;;;;5081601;28;20043;-65
2023/03/28 11:02:36;;;;;;;3.10;2.00;;;12.80;75.20;;;;;;5080231;28;20039;-66
2023/03/28 11:05:34;;;;;;;5.55;2.15;;;13.10;76.20;;;;;;5078254;28;20028;-66
2023/03/28 11:08:37;;;;;;;3.15;1.50;;;13.40;71.40;;;;;;5077488;28;20063;-66
2023/03/28 11:11:11;;;;;;;3.85;1.27;;;13.40;73.30;;;;;;5081135;28;20032;-66
2023/03/28 11:13:53;;;;;;;3.95;1.58;;;13.20;70.30;;;;;;5076795;28;20036;-66
2023/03/28 11:17:00;;;;;;;3.47;1.80;;;13.20;69.60;;;;;;5077228;28;20040;-66
2023/03/28 11:19:58;;;;;;;2.35;1.60;;;12.20;73.10;;;;;;5078547;28;20036;-67
2023/03/28 11:22:54;;;;;;;3.03;1.58;;;12.60;73.50;;;;;;5075611;28;20555;-67
2023/03/28 11:25:42;;;;;;;2.25;1.38;;;12.80;70.70;;;;;;5073566;28;20033;-67
2023/03/28 11:28:31;;;;;;;6.10;1.73;;;12.60;72.30;;;;;;5081168;28;20035;-67
2023/03/28 11:30:59;;;;;;;7.80;1.85;;;13.20;71.10;;;;;;5081611;28;20093;-67
2023/03/28 11:33:54;;;;;;;3.40;1.52;;;13.00;70.30;;;;;;5075669;28;20023;-67
2023/03/28 11:36:30;;;;;;;4.00;1.70;;;13.30;73.20;;;;;;5078944;28;20496;-67
2023/03/28 11:39:05;;;;;;;5.22;1.80;;;13.50;71.50;;;;;;5076821;28;20044;-67
2023/03/28 11:41:34;;;;;;;5.55;1.80;;;13.20;69.40;;;;;;5074315;28;20085;-67
2023/03/28 11:44:21;;;;;;;4.15;1.50;;;13.20;70.80;;;;;;5080844;28;20036;-67
2023/03/28 11:47:01;;;;;;;2.65;1.70;;;13.00;71.90;;;;;;5074250;28;20462;-67
2023/03/28 11:49:50;;;;;;;5.18;2.08;;;12.90;67.10;;;;;;5077859;28;20032;-67
2023/03/28 11:52:21;;;;;;;3.70;1.77;;;13.10;74.20;;;;;;5075610;28;20364;-67
2023/03/28 11:55:25;;;;;;;4.43;1.73;;;12.20;71.80;;;;;;5076016;28;20035;-67
2023/03/28 11:58:17;;;;;;;3.58;1.63;;;12.40;70.60;;;;;;5068829;28;20040;-66
2023/03/28 12:00:49;;;;;;;5.07;2.08;;;13.30;75.10;;;;;;5082571;28;20040;-66
2023/03/28 12:03:20;;;;;;;6.65;1.80;;;13.20;75.90;;;;;;5072593;28;20040;-66
2023/03/28 12:06:12;;;;;;;3.40;2.03;;;12.90;74.00;;;;;;5080735;28;20038;-65
2023/03/28 12:08:48;;;;;;;6.20;2.05;;;12.90;72.60;;;;;;5081964;28;20036;-66
2023/03/28 12:11:20;;;;;;;3.58;1.70;;;13.20;76.00;;;;;;5075664;28;20047;-66
2023/03/28 12:13:54;;;;;;;6.47;2.47;;;12.80;74.10;;;;;;5078270;28;20024;-66
2023/03/28 12:16:42;;;;;;;4.88;2.08;;;13.00;74.70;;;;;;5079011;28;20032;-66
2023/03/28 12:19:11;;;;;;;3.60;1.85;;;13.40;74.10;;;;;;5076267;28;20083;-65
2023/03/28 12:21:41;;;;;;;2.60;1.80;;;13.50;78.20;;;;;;5078463;28;20843;-66
2023/03/28 12:24:22;;;;;;;4.10;2.35;;;13.50;74.60;;;;;;5079447;28;20081;-67
2023/03/28 12:27:15;;;;;;;6.18;1.92;;;13.10;73.80;;;;;;5074507;28;20044;-67
2023/03/28 12:29:52;;;;;;;6.68;3.05;;;13.50;76.70;;;;;;5076219;28;20028;-67
2023/03/28 12:32:49;;;;;;;12.80;7.05;;;13.50;77.30;;;;;;5082333;28;20074;-67
2023/03/28 12:35:28;;;;;;;5.70;2.43;;;13.70;77.50;;;;;;5080269;28;20086;-67
2023/03/28 12:37:53;;;;;;;4.55;2.65;;;14.10;76.40;;;;;;5081205;28;20032;-67
2023/03/28 12:40:27;;;;;;;5.13;2.07;;;14.20;74.60;;;;;;5078816;28;20027;-67
2023/03/28 12:42:56;;;;;;;5.20;2.25;;;14.30;78.30;;;;;;5078290;28;20036;-67
2023/03/28 12:45:30;;;;;;;6.65;2.38;;;13.70;75.20;;;;;;5076914;28;20024;-67
2023/03/28 12:48:12;;;;;;;3.72;2.00;;;13.30;75.90;;;;;;5075708;28;20040;-67
2023/03/28 12:51:06;;;;;;;4.93;2.45;;;13.20;76.10;;;;;;5081478;28;20023;-66
2023/03/28 12:53:32;;;;;;;5.35;2.08;;;13.70;74.10;;;;;;5073383;28;20194;-67
2023/03/28 12:55:58;;;;;;;5.90;2.17;;;13.80;77.10;;;;;;5076687;28;20086;-67
2023/03/28 12:58:33;;;;;;;4.50;2.05;;;13.90;75.80;;;;;;5076414;28;20126;-67
2023/03/28 13:01:24;;;;;;;3.58;2.55;;;13.90;73.40;;;;;;5074106;28;20392;-67
2023/03/28 13:04:00;;;;;;;3.00;1.70;;;13.90;75.20;;;;;;5077139;28;20101;-67
2023/03/28 13:06:41;;;;;;;4.68;2.17;;;14.30;73.80;;;;;;5080759;28;20509;-67
2023/03/28 13:09:42;;;;;;;4.63;1.65;;;14.30;71.50;;;;;;5076517;28;20040;-67
2023/03/28 13:12:29;;;;;;;3.58;2.13;;;13.70;70.50;;;;;;5071415;28;20028;-67
2023/03/28 13:14:59;;;;;;;10.85;1.85;;;13.80;70.90;;;;;;5094590;28;20546;-67
2023/03/28 13:17:31;;;;;;;4.80;2.13;;;13.90;75.90;;;;;;5076443;28;20044;-67